Afogados da Ingazeira, Brazil
Current Conditions -  °F | °C
As of 3:00 PM on Saturday 22 Nov 2014 (Local Time) from SBJU Reporting Station
Clear Clear  
Wind Chill: 95°   Ceiling: Unl
Heat Index: 95°   Visibility: 6mi
Dew Point: 61°   Wind: 0mph
Humidity: 32%   Direction: NA
Pressure: 29.88"   Gusts: NA
Location:  7.75°S, 37.64°W
Report Text: SBJU 221800Z 00000KT CAVOK 35/16 Q1012
Loading
Personal Weather Stations






























Interactive Weather Map New forecast layout! Learn more

10-Day Weather Forecast

Advertisements
Track Severe Weather on mobile